Terminal Aerodrome Forecast
Issued by NWS

Home | Current Version | Previous Version | Text Only | Print | Product List | Glossary On
Versions: 1 2 3 4 5 6 7 8 9 10 11 12 13 14 15 16 17
521
FTUS44 KLIX 221120
TAFMSY
TAF
KMSY 221120Z 2212/2318 15008KT 5SM SHRA VCTS OVC015CB
     FM221700 20012KT P6SM VCSH OVC050
     FM222000 24012KT P6SM BKN050
     FM222200 27011KT P6SM BKN090
     FM230400 29010KT P6SM SCT250=

USA.gov is the U.S. government's official web portal to all federal, state and local government web resources and services.